Pagrindinis puslapis
METAR-TAF:

METAR-TAF

Oro uostai :

Golovin, Aliaska, Jungtinės Amerikos Valstijos

platuma: 64-32-36N, ilguma: 163-02-22W, Aukštis: 8 m

Dabartinis oras

Ataskaita buvo paskelbta 39 minutes, ne 04:56 UTC
Vėjas 9 kt iš Vakarų su gūsio iki 14 kt
Temperatūra 6°C
Drėgmė 75%
Slėgis 999 hPa
Matomumas: 16.1 km
Giedras dangus

METAR: PAGL 210456Z AUTO 27009G14KT 10SM CLR 06/02 A2950 RMK AO2 SLP987 T00610017

Laikas: 21:35 (05:35 UTC)


TAF: trūkstamas

Orai ataskaitas ir orų prognozės (METAR, TAF).

turimą stotys yra geltonos ir raudonos taškus žemėlapyje.

Perkelti pele per norėdami pamatyti stoties vardą.

Tada spustelėkite, norėdami matyti oro stebėjimo ir prognozės.

Norėdami pakeisti žemėlapį: spustelėkite ant žalios mygtukų su juodo kryžiaus žemyn,; žalią mygtuką su brūkšneliu, jei norite nutolinti; arba žalių rodyklių gretimoms žemėlapius.


METAR-TAF: